Time;durP1;ratioP1;P1;durP2;ratioP2;P2;SDS_P1;SDS_P2;PMS_P1;PMS_P2;Temp;Humidity;BMP_temperature;BMP_pressure;BME280_temperature;BME280_humidity;BME280_pressure;Samples;Min_cycle;Max_cycle;Signal;HPM_P1;HPM_P2
2022/01/28 00:00:40;;;;;;;7.20;1.40;;;;;;;4.66;84.32;102910.94;5078057;28;20609;-89
2022/01/28 00:03:09;;;;;;;8.95;1.40;;;;;;;4.68;84.20;102909.25;5083548;28;20555;-90
2022/01/28 00:05:36;;;;;;;9.27;2.08;;;;;;;4.77;83.92;102929.50;5081423;28;20027;-89
2022/01/28 00:08:04;;;;;;;12.57;1.50;;;;;;;4.69;84.07;102924.09;5081038;28;20092;-89
2022/01/28 00:10:31;;;;;;;14.63;2.03;;;;;;;4.71;83.44;102942.47;5084684;28;20020;-90
2022/01/28 00:13:33;;;;;;;5.50;0.98;;;;;;;4.68;84.43;102937.19;5080235;28;20050;-89
2022/01/28 00:39:45;;;;;;;8.00;1.50;;;;;;;4.32;84.42;102957.47;5088083;28;20038;-89
2022/01/28 00:42:10;;;;;;;6.50;1.35;;;;;;;4.18;85.02;102942.34;5078689;28;20031;-90
2022/01/28 00:44:36;;;;;;;11.50;1.30;;;;;;;4.22;84.50;102945.06;5079139;28;20028;-90
2022/01/28 00:47:02;;;;;;;12.10;1.58;;;;;;;4.20;84.60;102946.78;5081263;28;20035;-89
2022/01/28 00:49:27;;;;;;;11.35;2.10;;;;;;;4.20;84.50;102945.91;5084424;28;20594;-90
2022/01/28 00:51:52;;;;;;;10.23;1.60;;;;;;;4.20;84.77;102941.53;5080571;28;20031;-89
2022/01/28 00:54:18;;;;;;;10.73;1.35;;;;;;;4.13;84.79;102939.63;5081763;28;20021;-89
2022/01/28 00:56:44;;;;;;;9.77;1.40;;;;;;;4.21;84.92;102948.53;5075473;28;20064;-89
2022/01/28 00:59:09;;;;;;;5.38;1.20;;;;;;;4.23;84.73;102951.16;5078907;28;20032;-89
2022/01/28 01:01:35;;;;;;;10.88;1.45;;;;;;;4.30;84.98;102953.06;5084007;28;20432;-90
2022/01/28 01:04:01;;;;;;;6.28;1.40;;;;;;;4.32;84.72;102957.47;5080741;28;20062;-89
2022/01/28 01:06:27;;;;;;;8.10;1.50;;;;;;;4.34;84.82;102963.63;5082034;28;20247;-89
2022/01/28 01:08:52;;;;;;;7.10;1.40;;;;;;;4.36;84.99;102971.50;5079270;28;20115;-89
2022/01/28 01:11:20;;;;;;;10.55;1.25;;;;;;;4.33;84.42;102950.50;5076200;28;20158;-89
2022/01/28 01:13:46;;;;;;;9.98;1.40;;;;;;;4.41;84.46;102964.63;5076936;28;20032;-89
2022/01/28 01:16:14;;;;;;;11.10;1.40;;;;;;;4.36;84.66;102958.41;5084735;28;20024;-89
2022/01/28 01:21:23;;;;;;;5.50;1.38;;;;;;;4.45;84.56;102958.59;5078349;28;20043;-89
2022/01/28 01:23:56;;;;;;;8.25;1.60;;;;;;;4.46;84.41;102956.84;5074639;28;20028;-89
2022/01/28 01:26:32;;;;;;;8.23;1.40;;;;;;;4.53;84.35;102970.13;5085054;28;20031;-89
2022/01/28 01:28:58;;;;;;;9.82;1.60;;;;;;;4.52;84.35;102968.34;5088682;28;20102;-89
2022/01/28 01:31:23;;;;;;;12.07;2.05;;;;;;;4.46;84.66;102969.94;5080592;28;20074;-90
2022/01/28 01:34:08;;;;;;;12.60;2.70;;;;;;;4.42;84.26;102971.63;5087674;28;20027;-91
2022/01/28 01:36:33;;;;;;;10.70;1.45;;;;;;;4.46;84.36;102976.06;5087076;28;20121;-89
2022/01/28 01:38:58;;;;;;;11.65;1.88;;;;;;;4.50;84.37;102998.84;5075119;28;20021;-89
2022/01/28 01:41:33;;;;;;;8.50;1.35;;;;;;;4.36;84.31;102979.38;5087003;28;20105;-90
2022/01/28 01:44:04;;;;;;;20.40;2.30;;;;;;;4.38;84.61;103000.34;5086066;28;20373;-89
2022/01/28 01:54:26;;;;;;;7.28;1.27;;;;;;;4.31;85.00;103005.47;5084895;28;20510;-90
2022/01/28 01:56:53;;;;;;;10.73;2.15;;;;;;;4.34;85.00;103017.75;5085064;28;20020;-90
2022/01/28 01:59:19;;;;;;;8.98;1.25;;;;;;;4.38;84.71;103027.41;5082515;28;20032;-89
2022/01/28 02:01:44;;;;;;;9.63;1.65;;;;;;;4.38;84.90;103035.25;5081180;28;20245;-90
2022/01/28 02:04:10;;;;;;;14.65;2.20;;;;;;;4.35;84.96;103038.72;5088430;28;20032;-90
2022/01/28 02:06:36;;;;;;;7.97;1.35;;;;;;;4.28;85.15;103039.41;5087877;28;20051;-89
2022/01/28 02:09:01;;;;;;;4.97;1.25;;;;;;;4.23;85.45;103041.06;5085006;28;20050;-90
2022/01/28 02:11:27;;;;;;;6.78;1.95;;;;;;;4.29;84.97;103042.91;5087371;28;20019;-89
2022/01/28 02:13:52;;;;;;;12.98;1.40;;;;;;;4.24;85.26;103029.78;5086822;28;20034;-90
2022/01/28 02:16:18;;;;;;;8.95;1.63;;;;;;;4.34;85.38;103054.41;5083582;28;20066;-89
2022/01/28 02:18:44;;;;;;;9.20;1.60;;;;;;;4.34;84.96;103046.56;5079548;28;20461;-90
2022/01/28 02:21:12;;;;;;;14.10;1.73;;;;;;;4.42;84.70;103055.44;5080633;28;20043;-90
2022/01/28 02:23:38;;;;;;;15.63;1.92;;;;;;;4.35;84.93;103046.56;5085275;28;20415;-90
2022/01/28 02:26:05;;;;;;;8.60;1.40;;;;;;;4.34;84.98;103043.94;5083048;28;20024;-89
2022/01/28 02:28:34;;;;;;;7.07;2.42;;;;;;;4.39;84.88;103055.38;5083310;28;20468;-90
2022/01/28 02:31:04;;;;;;;4.05;0.95;;;;;;;4.33;84.89;103050.00;5087251;28;20040;-89
2022/01/28 02:33:30;;;;;;;11.27;2.17;;;;;;;4.38;84.90;103058.84;5086669;28;20016;-90
2022/01/28 02:36:02;;;;;;;16.52;2.15;;;;;;;4.39;84.88;103054.50;5084484;28;20070;-90
2022/01/28 02:38:27;;;;;;;8.68;1.40;;;;;;;4.36;84.72;103039.59;5083931;28;20498;-90
2022/01/28 02:40:57;;;;;;;9.02;1.42;;;;;;;4.41;84.53;103055.41;5087018;28;20222;-90
2022/01/28 02:46:17;;;;;;;13.55;1.35;;;;;;;4.39;84.94;103062.38;5075440;28;20526;-89
2022/01/28 02:48:54;;;;;;;22.20;2.38;;;;;;;4.36;85.29;103063.16;5084669;28;20023;-90
2022/01/28 02:51:22;;;;;;;7.35;1.27;;;;;;;4.32;85.46;103063.94;5087447;28;20031;-90
2022/01/28 02:53:54;;;;;;;11.65;1.42;;;;;;;4.35;85.15;103077.13;5084394;28;20284;-90
2022/01/28 02:56:24;;;;;;;7.50;2.05;;;;;;;4.27;85.61;103071.69;5079272;28;20421;-90
2022/01/28 02:58:50;;;;;;;19.75;1.70;;;;;;;4.37;85.43;103080.63;5081708;28;20020;-91
2022/01/28 03:01:17;;;;;;;11.88;1.65;;;;;;;4.29;85.63;103075.25;5085861;28;20153;-89
2022/01/28 03:03:44;;;;;;;8.35;1.52;;;;;;;4.26;85.78;103076.91;5086010;28;20028;-90
2022/01/28 03:06:12;;;;;;;11.77;1.73;;;;;;;4.33;85.98;103086.66;5086774;28;20039;-90
2022/01/28 03:08:37;;;;;;;9.23;1.63;;;;;;;4.28;86.12;103077.81;5084447;28;20048;-89
2022/01/28 03:16:20;;;;;;;7.00;1.60;;;;;;;4.60;85.88;103079.38;5085213;28;20085;-90
2022/01/28 03:18:53;;;;;;;8.07;1.52;;;;;;;4.76;86.06;103098.06;5084906;28;20186;-90
2022/01/28 03:23:45;;;;;;;14.68;1.65;;;;;;;4.90;85.33;103088.72;5087109;28;20147;-90
2022/01/28 03:26:10;;;;;;;12.57;1.30;;;;;;;4.98;85.60;103092.34;5076936;28;20531;-89
2022/01/28 03:28:35;;;;;;;7.78;1.27;;;;;;;5.02;85.47;103082.81;5086113;28;20492;-90
2022/01/28 03:31:01;;;;;;;6.68;1.20;;;;;;;5.08;85.56;103096.03;5083119;28;20051;-90
2022/01/28 03:33:26;;;;;;;9.65;1.20;;;;;;;5.14;85.36;103095.28;5085162;28;20050;-90
2022/01/28 03:35:51;;;;;;;11.30;1.50;;;;;;;5.12;85.24;103077.75;5085999;28;20119;-90
2022/01/28 03:38:17;;;;;;;12.98;1.52;;;;;;;5.18;85.34;103094.50;5087189;28;20023;-90
2022/01/28 03:40:43;;;;;;;8.70;1.83;;;;;;;5.16;85.07;103099.69;5086016;28;20012;-90
2022/01/28 03:43:08;;;;;;;8.88;1.58;;;;;;;5.06;85.71;103103.00;5083212;28;20557;-90
2022/01/28 03:45:34;;;;;;;9.02;1.60;;;;;;;4.98;85.87;103108.09;5077485;28;20029;-90
2022/01/28 03:48:00;;;;;;;5.00;1.50;;;;;;;4.80;85.87;103111.25;5075851;28;20051;-90
2022/01/28 03:50:26;;;;;;;9.88;1.70;;;;;;;4.57;86.28;103102.03;5076785;28;20028;-90
2022/01/28 03:52:51;;;;;;;11.80;1.67;;;;;;;4.41;86.45;103102.53;5081116;28;20137;-90
2022/01/28 03:55:16;;;;;;;10.65;1.75;;;;;;;4.29;86.37;103106.69;5081763;28;20030;-90
2022/01/28 03:57:42;;;;;;;13.25;1.75;;;;;;;4.13;86.35;103107.16;5081692;28;20089;-90
2022/01/28 04:00:08;;;;;;;18.33;2.90;;;;;;;3.93;86.40;103108.44;5084998;28;20368;-90
2022/01/28 04:02:37;;;;;;;8.10;1.83;;;;;;;3.82;87.03;103116.94;5084921;28;20407;-90
2022/01/28 04:13:33;;;;;;;13.05;1.42;;;;;;;3.83;87.86;103120.44;5045294;28;20111;-89
2022/01/28 04:18:23;;;;;;;9.85;1.80;;;;;;;3.99;87.19;103119.94;5085463;28;20031;-89
2022/01/28 04:20:49;;;;;;;11.95;2.03;;;;;;;3.95;87.38;103117.22;5084552;28;20020;-89
2022/01/28 04:23:14;;;;;;;7.80;1.25;;;;;;;4.04;87.11;103126.16;5079723;28;20070;-89
2022/01/28 04:25:40;;;;;;;6.97;1.52;;;;;;;3.99;87.40;103119.94;5083545;28;20107;-90
2022/01/28 04:28:05;;;;;;;13.65;1.80;;;;;;;3.97;87.34;103116.41;5081025;28;20082;-90
2022/01/28 04:30:30;;;;;;;15.35;1.45;;;;;;;3.95;87.47;103128.56;5078584;28;20093;-90
2022/01/28 04:32:56;;;;;;;11.35;1.55;;;;;;;3.82;87.63;103116.00;5083439;28;20051;-90
2022/01/28 04:35:21;;;;;;;6.40;1.17;;;;;;;3.82;87.85;103127.41;5074626;28;20051;-90
2022/01/28 04:40:21;;;;;;;11.27;1.40;;;;;;;4.01;87.34;103133.97;5083846;28;20036;-90
2022/01/28 04:48:01;;;;;;;13.90;1.98;;;;;;;3.82;87.58;103134.34;5086060;28;20038;-90
2022/01/28 04:50:37;;;;;;;11.40;1.80;;;;;;;3.68;87.97;103138.34;5082922;28;20055;-90
2022/01/28 04:53:17;;;;;;;8.30;1.00;;;;;;;3.67;88.50;103147.91;5085484;28;20515;-89
2022/01/28 04:55:56;;;;;;;10.07;1.63;;;;;;;3.81;87.91;103150.88;5079772;28;20077;-89
2022/01/28 05:27:23;;;;;;;6.93;1.35;;;;;;;3.41;88.58;103189.09;5087347;28;20035;-90
2022/01/28 05:29:48;;;;;;;7.53;1.45;;;;;;;3.35;88.52;103185.41;5089714;28;20036;-90
2022/01/28 05:32:13;;;;;;;12.80;1.50;;;;;;;3.30;88.64;103186.16;5086199;28;20059;-89
2022/01/28 05:34:40;;;;;;;10.52;1.30;;;;;;;3.33;88.68;103193.22;5079973;28;20404;-90
2022/01/28 05:37:06;;;;;;;7.07;1.80;;;;;;;3.17;88.70;103185.78;5085823;28;20468;-90
2022/01/28 05:39:32;;;;;;;6.47;1.52;;;;;;;3.06;88.98;103183.75;5089880;28;20035;-90
2022/01/28 05:41:57;;;;;;;11.35;2.00;;;;;;;2.99;88.50;103192.28;5087535;28;20032;-90
2022/01/28 05:44:23;;;;;;;22.92;2.28;;;;;;;2.94;88.82;103186.03;5083124;28;20028;-90
2022/01/28 05:46:49;;;;;;;10.73;1.92;;;;;;;3.08;89.28;103199.50;5077229;28;20115;-90
2022/01/28 05:49:15;;;;;;;11.13;2.70;;;;;;;2.95;88.76;103195.66;5083365;28;20186;-90
2022/01/28 05:51:42;;;;;;;8.32;2.20;;;;;;;2.95;89.25;103213.94;5081414;28;20488;-90
2022/01/28 05:54:07;;;;;;;18.20;2.67;;;;;;;2.97;89.47;103217.47;5083613;28;20027;-90
2022/01/28 05:56:33;;;;;;;12.60;1.90;;;;;;;3.04;89.28;103213.31;5080161;28;20032;-90
2022/01/28 05:58:59;;;;;;;10.20;2.38;;;;;;;3.06;89.18;103219.47;5086052;28;20024;-90
2022/01/28 06:01:25;;;;;;;15.13;1.98;;;;;;;3.03;89.34;103230.72;5084192;28;20113;-90
2022/01/28 06:03:51;;;;;;;10.85;2.67;;;;;;;3.05;89.43;103231.66;5085197;28;20507;-90
2022/01/28 06:06:21;;;;;;;8.63;2.05;;;;;;;2.95;88.81;103232.22;5084618;28;20268;-90
2022/01/28 06:08:51;;;;;;;8.30;2.08;;;;;;;2.77;88.67;103236.91;5087387;28;20024;-90
2022/01/28 06:11:18;;;;;;;11.18;2.28;;;;;;;2.72;88.87;103249.81;5089642;28;20066;-91
2022/01/28 06:13:43;;;;;;;14.63;2.50;;;;;;;2.73;89.61;103235.03;5084825;28;20032;-90
2022/01/28 06:16:10;;;;;;;17.05;2.75;;;;;;;2.77;89.62;103242.13;5089359;28;20383;-91
2022/01/28 06:18:36;;;;;;;15.30;2.72;;;;;;;2.77;89.39;103242.13;5078864;28;20411;-90
2022/01/28 06:21:02;;;;;;;11.10;2.28;;;;;;;2.67;89.44;103237.47;5084628;28;20039;-90
2022/01/28 06:23:28;;;;;;;10.80;2.80;;;;;;;2.74;89.91;103255.06;5079506;28;20509;-91
2022/01/28 06:25:53;;;;;;;13.20;3.30;;;;;;;2.65;89.55;103260.00;5087990;28;20028;-90
2022/01/28 06:28:18;;;;;;;13.45;2.88;;;;;;;2.68;90.10;103270.56;5078350;28;20024;-90
2022/01/28 06:30:44;;;;;;;14.98;3.35;;;;;;;2.59;89.97;103267.66;5084869;28;20559;-91
2022/01/28 06:33:13;;;;;;;19.33;3.55;;;;;;;2.51;89.73;103276.13;5085114;28;20103;-90
2022/01/28 06:35:39;;;;;;;9.02;2.70;;;;;;;2.46;89.46;103279.44;5075491;28;20422;-91
2022/01/28 06:38:05;;;;;;;13.80;2.58;;;;;;;2.34;89.04;103281.66;5083377;28;20526;-91
2022/01/28 06:40:30;;;;;;;13.23;2.95;;;;;;;2.23;89.08;103283.88;5078297;28;20025;-91
2022/01/28 06:42:55;;;;;;;9.15;3.17;;;;;;;2.04;88.81;103293.69;5087186;28;20124;-90
2022/01/28 06:45:21;;;;;;;7.45;2.42;;;;;;;1.84;88.48;103297.34;5090046;28;20114;-90
2022/01/28 06:47:46;;;;;;;10.48;3.00;;;;;;;1.74;88.63;103290.91;5088715;28;20028;-91
2022/01/28 06:50:11;;;;;;;8.75;2.65;;;;;;;1.75;88.85;103299.63;5087085;28;20411;-91
2022/01/28 06:52:38;;;;;;;11.60;2.50;;;;;;;1.63;88.32;103307.00;5083472;28;20031;-90
2022/01/28 06:55:05;;;;;;;11.15;3.15;;;;;;;1.48;88.87;103308.22;5068815;28;20025;-90
2022/01/28 06:57:31;;;;;;;6.82;2.58;;;;;;;1.43;88.99;103311.47;5075781;28;20332;-91
2022/01/28 06:59:56;;;;;;;12.35;2.90;;;;;;;1.38;88.65;103315.63;5083179;28;20059;-90
2022/01/28 07:02:22;;;;;;;10.02;2.83;;;;;;;1.34;89.11;103313.75;5083838;28;20081;-91
2022/01/28 07:04:47;;;;;;;12.57;2.50;;;;;;;1.34;89.04;103319.84;5078111;28;20077;-90
2022/01/28 07:07:13;;;;;;;6.85;2.85;;;;;;;1.35;89.36;103325.94;5082461;28;20270;-90
2022/01/28 07:09:38;;;;;;;16.65;3.70;;;;;;;1.40;89.18;103335.72;5084363;28;20049;-90
2022/01/28 07:12:04;;;;;;;12.57;3.50;;;;;;;1.39;89.71;103335.66;5086107;28;20069;-90
2022/01/28 07:14:29;;;;;;;12.23;3.47;;;;;;;1.50;89.91;103345.66;5082357;28;20099;-90
2022/01/28 07:16:55;;;;;;;7.95;3.85;;;;;;;1.57;89.81;103335.47;5078247;28;20020;-90
2022/01/28 07:19:21;;;;;;;16.92;4.60;;;;;;;1.68;89.93;103347.16;5088035;28;20016;-90
2022/01/28 07:21:46;;;;;;;20.63;5.30;;;;;;;1.74;89.80;103344.78;5088022;28;20475;-91
2022/01/28 07:24:11;;;;;;;13.10;4.85;;;;;;;1.82;90.49;103343.38;5079705;28;20480;-90
2022/01/28 07:26:37;;;;;;;12.73;5.30;;;;;;;1.76;90.33;103335.28;5084731;28;20034;-89
2022/01/28 07:29:03;;;;;;;13.50;5.43;;;;;;;1.77;89.75;103348.41;5086953;28;20028;-90
2022/01/28 07:31:28;;;;;;;13.77;5.53;;;;;;;1.74;89.87;103356.13;5081489;28;20519;-90
2022/01/28 07:33:53;;;;;;;25.40;5.13;;;;;;;1.84;89.95;103372.09;5077271;28;20028;-90
2022/01/28 07:36:19;;;;;;;12.07;4.63;;;;;;;1.82;89.64;103359.00;5087868;28;20031;-91
2022/01/28 07:38:44;;;;;;;16.05;4.82;;;;;;;1.74;89.68;103363.94;5082845;28;20656;-90
2022/01/28 07:41:09;;;;;;;17.23;4.85;;;;;;;1.68;89.80;103381.97;5081201;28;20142;-89
2022/01/28 07:43:37;;;;;;;17.42;6.13;;;;;;;1.64;89.84;103380.09;5084172;28;20063;-90
2022/01/28 07:46:04;;;;;;;19.27;5.85;;;;;;;1.70;90.71;103375.09;5086160;28;20035;-90
2022/01/28 07:48:30;;;;;;;17.63;6.95;;;;;;;1.83;90.23;103371.22;5084582;28;20027;-90
2022/01/28 07:50:55;;;;;;;15.50;6.07;;;;;;;1.95;90.13;103383.78;5085439;28;20036;-90
2022/01/28 07:53:20;;;;;;;17.08;5.53;;;;;;;1.96;89.93;103391.69;5083412;28;20115;-91
2022/01/28 07:55:46;;;;;;;16.25;6.32;;;;;;;1.87;90.17;103374.84;5085345;28;20035;-90
2022/01/28 07:58:11;;;;;;;21.27;6.07;;;;;;;1.91;90.19;103374.09;5086334;28;20020;-90
2022/01/28 08:00:37;;;;;;;18.92;6.22;;;;;;;1.88;90.29;103374.00;5089081;28;20475;-90
2022/01/28 08:03:02;;;;;;;19.63;5.40;;;;;;;1.97;90.17;103389.97;5086569;28;20304;-91
2022/01/28 08:05:27;;;;;;;21.00;5.20;;;;;;;1.85;89.91;103379.97;5083281;28;20028;-90
2022/01/28 08:07:53;;;;;;;15.02;5.28;;;;;;;1.87;89.83;103398.31;5081590;28;20036;-90
2022/01/28 08:10:19;;;;;;;12.45;5.10;;;;;;;1.92;90.02;103402.84;5080234;28;20884;-90
2022/01/28 08:12:49;;;;;;;14.90;5.60;;;;;;;2.02;90.02;103404.06;5072337;28;20488;-90
2022/01/28 08:15:15;;;;;;;14.43;4.88;;;;;;;2.02;89.68;103399.75;5072191;28;20391;-90
2022/01/28 08:17:41;;;;;;;13.00;4.53;;;;;;;2.07;89.96;103412.06;5078820;28;20043;-90
2022/01/28 08:20:07;;;;;;;19.75;4.90;;;;;;;2.00;89.81;103414.44;5081765;28;20498;-91
2022/01/28 08:22:33;;;;;;;12.18;5.03;;;;;;;2.08;89.77;103425.16;5083778;28;20081;-89
2022/01/28 08:24:58;;;;;;;14.88;5.00;;;;;;;2.26;90.32;103432.78;5082522;28;20032;-90
2022/01/28 08:27:24;;;;;;;13.40;5.55;;;;;;;2.80;90.57;103432.91;5083109;28;20081;-90
2022/01/28 08:29:49;;;;;;;18.38;7.32;;;;;;;3.41;89.92;103421.81;5083292;28;20051;-89
2022/01/28 08:32:14;;;;;;;13.63;6.53;;;;;;;3.88;89.17;103435.44;5078402;28;20062;-89
2022/01/28 08:34:40;;;;;;;13.52;6.18;;;;;;;4.08;88.31;103433.38;5081803;28;20031;-89
2022/01/28 08:37:05;;;;;;;16.52;5.82;;;;;;;4.31;87.89;103437.53;5084259;28;20062;-89
2022/01/28 08:39:36;;;;;;;19.10;5.93;;;;;;;4.78;87.83;103423.91;5075852;28;20028;-89
2022/01/28 08:42:02;;;;;;;19.77;5.25;;;;;;;5.29;85.95;103428.66;5076854;28;20020;-89
2022/01/28 08:44:28;;;;;;;10.27;4.88;;;;;;;5.81;85.51;103441.19;5082247;28;20055;-89
2022/01/28 08:46:53;;;;;;;16.75;4.85;;;;;;;6.09;82.96;103420.78;5078039;28;20465;-89
2022/01/28 08:49:18;;;;;;;16.42;4.60;;;;;;;6.49;82.29;103426.81;5079676;28;20036;-89
2022/01/28 08:51:45;;;;;;;10.75;4.13;;;;;;;6.71;81.15;103430.69;5082705;28;20020;-88
2022/01/28 08:54:10;;;;;;;18.45;4.60;;;;;;;6.64;79.33;103427.97;5082683;28;20458;-89
2022/01/28 08:56:35;;;;;;;9.70;3.75;;;;;;;7.18;80.18;103446.38;5081817;28;20035;-88
2022/01/28 08:59:01;;;;;;;10.45;4.10;;;;;;;7.48;79.39;103438.06;5083423;28;20396;-89
2022/01/28 09:01:28;;;;;;;10.80;4.22;;;;;;;7.67;77.11;103427.81;5077732;28;20103;-89
2022/01/28 09:03:54;;;;;;;12.00;4.60;;;;;;;8.03;77.30;103437.06;5079538;28;20484;-89
2022/01/28 09:06:19;;;;;;;19.13;5.00;;;;;;;8.30;76.14;103441.78;5080671;28;20056;-89
2022/01/28 09:08:46;;;;;;;11.10;4.32;;;;;;;8.24;74.94;103449.59;5080400;28;20024;-88
2022/01/28 09:13:49;;;;;;;11.75;4.85;;;;;;;8.55;75.26;103435.03;5084117;28;20039;-89
2022/01/28 09:16:14;;;;;;;16.80;5.07;;;;;;;8.71;75.90;103433.41;5082309;28;20396;-89
2022/01/28 09:18:40;;;;;;;9.63;4.15;;;;;;;8.70;75.54;103434.28;5078917;28;20030;-89
2022/01/28 09:21:06;;;;;;;17.45;5.22;;;;;;;8.84;75.86;103440.56;5081343;28;21618;-89
2022/01/28 09:23:31;;;;;;;10.23;4.57;;;;;;;8.74;74.50;103430.81;5080292;28;20074;-89
2022/01/28 09:25:57;;;;;;;12.95;4.82;;;;;;;9.20;76.10;103439.97;5078956;28;20462;-88
2022/01/28 09:28:22;;;;;;;10.05;4.22;;;;;;;9.37;73.95;103436.56;5072259;28;20056;-89
2022/01/28 09:30:47;;;;;;;11.80;3.80;;;;;;;9.67;71.06;103436.75;5078650;28;20071;-88
2022/01/28 09:33:13;;;;;;;11.60;4.47;;;;;;;10.33;70.36;103444.09;5080563;28;20387;-89
2022/01/28 09:35:41;;;;;;;14.02;4.53;;;;;;;10.50;68.69;103447.66;5069553;28;20131;-89
2022/01/28 09:38:07;;;;;;;9.63;3.63;;;;;;;10.84;67.51;103447.69;5070190;28;20108;-89
2022/01/28 09:40:33;;;;;;;11.05;4.30;;;;;;;10.73;65.89;103440.66;5078861;28;20103;-89
2022/01/28 09:43:00;;;;;;;12.40;4.32;;;;;;;10.81;66.23;103460.91;5078332;28;20115;-89
2022/01/28 09:45:26;;;;;;;8.60;4.30;;;;;;;11.27;66.76;103451.22;5083561;28;20471;-89
2022/01/28 09:47:53;;;;;;;16.42;4.55;;;;;;;11.69;64.45;103459.97;5086354;28;20036;-89
2022/01/28 09:50:21;;;;;;;14.05;4.10;;;;;;;12.11;64.15;103458.06;5085473;28;20792;-89
2022/01/28 09:52:47;;;;;;;12.98;3.80;;;;;;;12.29;62.90;103462.41;5088467;28;20026;-89
2022/01/28 09:55:12;;;;;;;12.38;4.40;;;;;;;12.67;61.90;103463.03;5087979;28;20364;-89
2022/01/28 09:57:38;;;;;;;11.30;4.00;;;;;;;12.80;60.69;103462.97;5085814;28;20020;-90
2022/01/28 10:00:05;;;;;;;13.32;4.30;;;;;;;13.09;60.31;103476.00;5086201;28;20032;-89
2022/01/28 10:02:46;;;;;;;9.40;3.88;;;;;;;13.65;63.92;103486.13;5084054;28;20021;-89
2022/01/28 10:05:25;;;;;;;10.23;4.15;;;;;;;14.42;59.53;103474.56;5078106;28;20024;-89
2022/01/28 10:08:02;;;;;;;10.55;4.07;;;;;;;14.86;58.12;103483.66;5083129;28;20031;-89
2022/01/28 10:10:41;;;;;;;10.27;3.80;;;;;;;15.31;56.10;103477.56;5081359;28;20462;-89
2022/01/28 10:13:17;;;;;;;13.48;4.28;;;;;;;15.36;53.81;103474.81;5081883;28;20549;-89
2022/01/28 10:15:58;;;;;;;14.93;3.50;;;;;;;15.60;53.73;103481.50;5081691;28;20052;-89
2022/01/28 10:18:35;;;;;;;9.48;3.28;;;;;;;15.94;53.22;103483.50;5084657;28;20044;-89
2022/01/28 10:21:00;;;;;;;10.85;3.80;;;;;;;16.21;48.12;103471.38;5073710;28;20484;-89
2022/01/28 10:23:26;;;;;;;13.80;4.15;;;;;;;15.98;47.24;103470.06;5080922;28;20028;-89
2022/01/28 10:25:56;;;;;;;12.77;3.60;;;;;;;16.43;47.30;103471.78;5080660;28;20029;-89
2022/01/28 10:28:22;;;;;;;12.85;4.32;;;;;;;16.72;45.51;103468.47;5082210;28;20447;-89
2022/01/28 10:30:47;;;;;;;14.18;3.72;;;;;;;16.97;44.80;103482.09;5082654;28;20068;-89
2022/01/28 10:33:19;;;;;;;11.30;3.38;;;;;;;17.10;46.18;103478.22;5083761;28;20434;-89
2022/01/28 10:35:55;;;;;;;;;;;;;;;17.38;48.09;103486.38;5085733;28;20047;-89
2022/01/28 10:38:28;;;;;;;9.50;3.10;;;;;;;17.13;47.84;103475.47;5086150;28;20026;-89
2022/01/28 10:41:13;;;;;;;;;;;;;;;17.76;45.63;103488.03;5079776;28;20488;-88
2022/01/28 10:43:47;;;;;;;10.05;3.13;;;;;;;17.96;45.96;103478.59;5081937;28;20009;-89
2022/01/28 10:46:19;;;;;;;13.27;3.63;;;;;;;18.55;42.78;103479.44;5069421;28;20115;-89
2022/01/28 10:48:50;;;;;;;9.15;3.67;;;;;;;18.68;42.15;103466.53;5079950;28;20031;-89
2022/01/28 10:51:18;;;;;;;8.40;3.10;;;;;;;18.65;40.84;103473.78;5084744;28;20125;-89
2022/01/28 10:54:01;;;;;;;12.32;3.13;;;;;;;18.82;44.36;103471.47;5081453;28;20618;-89
2022/01/28 10:56:27;;;;;;;12.40;3.30;;;;;;;19.06;39.90;103464.41;5081024;28;20495;-89
2022/01/28 10:58:52;;;;;;;15.40;3.88;;;;;;;19.38;38.97;103460.59;5076799;28;20052;-89
2022/01/28 11:01:18;;;;;;;11.25;3.85;;;;;;;19.25;39.61;103454.78;5081191;28;20031;-89
2022/01/28 11:03:43;;;;;;;8.80;3.47;;;;;;;19.77;39.04;103461.00;5081781;28;20039;-89
2022/01/28 11:06:09;;;;;;;9.05;3.10;;;;;;;19.70;38.02;103462.16;5085897;28;20040;-89
2022/01/28 11:08:34;;;;;;;11.48;3.15;;;;;;;19.23;39.09;103455.78;5083132;28;20024;-89
2022/01/28 11:11:01;;;;;;;10.63;2.60;;;;;;;20.45;36.67;103458.38;5082001;28;20038;-89
2022/01/28 11:13:27;;;;;;;8.50;3.40;;;;;;;20.32;35.89;103449.94;5085018;28;20025;-89
2022/01/28 11:15:54;;;;;;;9.18;2.80;;;;;;;19.66;36.86;103448.91;5079313;28;20457;-90
2022/01/28 11:18:20;;;;;;;6.28;2.95;;;;;;;19.72;36.14;103454.03;5083774;28;20040;-90
2022/01/28 11:21:03;;;;;;;8.95;2.72;;;;;;;20.21;39.30;103442.31;5086791;28;20036;-89
2022/01/28 11:23:40;;;;;;;13.00;3.20;;;;;;;20.90;35.79;103444.91;5084751;28;20507;-90
2022/01/28 11:26:16;;;;;;;8.23;2.97;;;;;;;21.67;35.28;103434.34;5080498;28;20028;-91
2022/01/28 11:28:56;;;;;;;7.35;2.75;;;;;;;22.01;34.50;103430.06;5080908;28;20040;-89
2022/01/28 11:31:44;;;;;;;9.23;3.33;;;;;;;22.22;34.83;103425.53;5077742;28;20044;-90
2022/01/28 11:34:21;;;;;;;11.55;3.10;;;;;;;21.99;34.26;103423.91;5081208;28;20535;-89
2022/01/28 11:36:46;;;;;;;13.98;3.17;;;;;;;19.96;33.22;103406.59;5071527;28;20453;-89
2022/01/28 11:39:36;;;;;;;10.38;2.85;;;;;;;20.30;37.68;103412.41;5088066;28;20107;-90
2022/01/28 11:42:05;;;;;;;9.43;2.88;;;;;;;20.29;35.06;103416.03;5079667;28;20024;-90
2022/01/28 11:44:43;;;;;;;7.63;2.25;;;;;;;21.12;35.57;103413.47;5079863;28;20034;-91
2022/01/28 11:47:11;;;;;;;11.35;3.00;;;;;;;21.10;32.32;103411.75;5083650;28;20080;-89
2022/01/28 11:50:06;;;;;;;10.38;2.45;;;;;;;19.40;37.72;103410.47;5082716;28;20522;-89
2022/01/28 11:52:34;;;;;;;7.80;2.22;;;;;;;19.40;36.14;103414.94;5067489;28;20521;-90
2022/01/28 11:55:15;;;;;;;9.80;3.00;;;;;;;20.52;36.93;103411.56;5077121;28;20028;-90
2022/01/28 11:58:09;;;;;;;13.23;3.10;;;;;;;20.23;37.33;103407.31;5082041;28;20404;-90
2022/01/28 12:00:47;;;;;;;10.93;2.45;;;;;;;19.73;35.64;103407.50;5082468;28;20537;-90
2022/01/28 12:03:18;;;;;;;9.23;2.13;;;;;;;19.17;35.16;103397.88;5082290;28;20094;-89
2022/01/28 12:05:56;;;;;;;9.32;2.80;;;;;;;18.07;38.45;103401.50;5080072;28;20024;-90
2022/01/28 12:08:25;;;;;;;13.05;2.45;;;;;;;17.96;38.64;103404.53;5082478;28;20062;-90
2022/01/28 12:10:51;;;;;;;7.63;2.80;;;;;;;17.66;38.73;103397.34;5082980;28;20028;-89
2022/01/28 12:13:20;;;;;;;10.95;2.50;;;;;;;17.53;41.52;103397.72;5081654;28;20021;-89
2022/01/28 12:15:59;;;;;;;11.05;2.80;;;;;;;16.20;42.55;103406.44;5082469;28;20031;-90
2022/01/28 12:18:46;;;;;;;5.38;1.80;;;;;;;14.77;44.82;103405.66;5081882;28;20025;-89
2022/01/28 12:21:26;;;;;;;11.38;2.70;;;;;;;14.52;45.04;103383.91;5073604;28;20040;-89
2022/01/28 12:23:54;;;;;;;8.18;2.33;;;;;;;17.29;40.10;103383.22;5082352;28;20496;-89
2022/01/28 12:26:22;;;;;;;11.60;2.28;;;;;;;18.94;35.78;103373.69;5080890;28;20025;-92
2022/01/28 12:28:55;;;;;;;5.25;1.55;;;;;;;20.48;33.37;103375.00;5079923;28;20034;-90
2022/01/28 12:31:25;;;;;;;8.15;2.20;;;;;;;20.85;31.36;103375.19;5081118;28;20040;-90
2022/01/28 12:33:56;;;;;;;11.15;2.55;;;;;;;18.32;35.99;103375.69;5083196;28;20031;-89
2022/01/28 12:36:28;;;;;;;7.82;2.30;;;;;;;18.20;37.51;103370.75;5083002;28;20030;-91
2022/01/28 12:41:40;;;;;;;6.32;2.25;;;;;;;19.30;34.07;103345.50;5076338;28;20036;-91
2022/01/28 12:44:06;;;;;;;6.97;2.35;;;;;;;19.60;33.48;103343.53;5081489;28;20032;-90
2022/01/28 12:46:36;;;;;;;6.88;2.15;;;;;;;19.97;32.90;103350.16;5091392;28;20062;-90
2022/01/28 12:49:02;;;;;;;7.97;1.85;;;;;;;18.91;34.26;103341.63;5085310;28;20055;-90
2022/01/28 12:51:28;;;;;;;7.57;1.85;;;;;;;19.27;33.38;103340.28;5078095;28;20016;-91
2022/01/28 12:53:54;;;;;;;5.20;1.70;;;;;;;16.48;36.80;103334.59;5080385;28;20032;-91
2022/01/28 12:56:39;;;;;;;12.95;2.08;;;;;;;16.87;39.02;103349.66;5077383;28;20035;-90
2022/01/28 12:59:05;;;;;;;6.15;2.22;;;;;;;17.89;36.57;103344.06;5085227;28;20119;-91
2022/01/28 13:01:30;;;;;;;8.35;2.53;;;;;;;18.68;35.45;103348.63;5085434;28;20494;-91
2022/01/28 13:04:04;;;;;;;8.32;2.80;;;;;;;17.97;35.93;103343.81;5077799;28;20582;-91
2022/01/28 13:09:23;;;;;;;9.88;3.50;;;;;;;16.80;39.44;103336.47;5077019;28;20099;-90
2022/01/28 13:11:52;;;;;;;10.50;3.50;;;;;;;17.46;37.84;103326.59;5079350;28;20119;-89